Terminal Aerodrome Forecast
Issued by NWS

Home | Current Version | Previous Version | Text Only | Print | Product List | Glossary On
Versions: 1 2 3 4 5 6 7 8 9 10 11 12
000
FTAK31 PAJN 042324
TAFAWG
TAF
PAWG 042324Z 0500/0524 32005KT P6SM OVC100
     FM050900 12005KT P6SM VCSH OVC060
     FM051200 12010G18KT P6SM -RA OVC060 WS020/14025KT
     FM051400 12011G21KT 6SM -RA BR BKN030 OVC060 WS020/14025KT
     FM052000 11010KT P6SM -SHRA SCT030 OVC040
      AMD LTD TO CLD VIS AND WIND 0506/0515=

USA.gov is the U.S. government's official web portal to all federal, state and local government web resources and services.